Time;durP1;ratioP1;P1;durP2;ratioP2;P2;SDS_P1;SDS_P2;PMS_P1;PMS_P2;Temp;Humidity;BMP_temperature;BMP_pressure;BME280_temperature;BME280_humidity;BME280_pressure;Samples;Min_cycle;Max_cycle;Signal;HPM_P1;HPM_P2
2022/04/27 00:01:14;;;;;;;11.50;7.63;;;;;;;3.44;100.00;102321.97;10313655;28;20123;-72
2022/04/27 00:06:15;;;;;;;16.02;8.32;;;;;;;3.51;100.00;102324.00;10349072;28;20045;-71
2022/04/27 00:11:15;;;;;;;12.63;7.85;;;;;;;3.46;100.00;102329.13;10350190;28;20042;-71
2022/04/27 00:16:16;;;;;;;16.00;8.35;;;;;;;3.36;100.00;102310.22;10350698;28;20478;-72
2022/04/27 00:21:17;;;;;;;16.15;9.02;;;;;;;3.37;100.00;102325.53;10349133;28;20035;-71
2022/04/27 00:26:18;;;;;;;17.08;8.75;;;;;;;3.33;100.00;102322.31;10349712;28;20056;-72
2022/04/27 00:31:19;;;;;;;14.45;7.60;;;;;;;3.33;100.00;102330.50;10347867;28;20050;-73
2022/04/27 00:36:19;;;;;;;13.65;8.73;;;;;;;3.10;100.00;102308.56;10350389;28;20065;-72
2022/04/27 00:41:19;;;;;;;14.18;8.70;;;;;;;3.03;100.00;102313.78;10350437;28;20026;-72
2022/04/27 00:46:20;;;;;;;14.93;9.77;;;;;;;3.03;100.00;102330.13;10349504;28;20026;-71
2022/04/27 00:51:22;;;;;;;19.55;10.00;;;;;;;2.99;100.00;102317.88;10348778;28;20030;-72
2022/04/27 00:56:23;;;;;;;19.92;9.82;;;;;;;2.94;100.00;102316.69;10346624;28;20084;-72
2022/04/27 01:01:23;;;;;;;17.55;9.20;;;;;;;3.05;100.00;102326.41;10305075;28;20442;-71
2022/04/27 01:06:24;;;;;;;20.98;10.35;;;;;;;3.12;100.00;102328.28;10305722;28;20495;-72
2022/04/27 01:11:24;;;;;;;20.05;10.10;;;;;;;3.20;100.00;102330.13;10324056;28;20070;-72
2022/04/27 01:16:25;;;;;;;21.15;9.90;;;;;;;3.18;100.00;102324.00;10308346;28;20037;-72
2022/04/27 01:21:26;;;;;;;15.13;9.13;;;;;;;3.23;100.00;102318.91;10306700;28;20120;-71
2022/04/27 01:26:27;;;;;;;18.40;9.90;;;;;;;3.41;100.00;102340.50;10307891;28;20395;-72
2022/04/27 01:31:27;;;;;;;18.17;9.57;;;;;;;3.54;100.00;102343.56;10300509;28;20042;-72
2022/04/27 01:36:28;;;;;;;19.50;10.75;;;;;;;3.58;100.00;102327.75;10307138;28;20026;-72
2022/04/27 01:41:28;;;;;;;18.60;10.40;;;;;;;3.82;100.00;102352.22;10306327;28;20038;-71
2022/04/27 01:46:29;;;;;;;21.48;10.45;;;;;;;3.91;100.00;102349.47;10308199;28;20039;-72
2022/04/27 01:56:49;;;;;;;17.90;10.95;;;;;;;4.00;100.00;102337.53;10306791;28;20105;-72
2022/04/27 02:01:49;;;;;;;17.40;10.63;;;;;;;4.08;100.00;102340.22;10345718;28;20038;-72
2022/04/27 02:06:50;;;;;;;19.38;10.68;;;;;;;3.96;100.00;102298.03;10306605;28;20354;-71
2022/04/27 02:11:50;;;;;;;19.90;10.43;;;;;;;4.34;100.00;102355.44;10307115;28;20098;-71
2022/04/27 02:16:51;;;;;;;17.63;11.23;;;;;;;4.28;100.00;102356.16;10307409;28;20034;-72
2022/04/27 02:21:52;;;;;;;17.90;11.55;;;;;;;4.43;100.00;102368.03;10306201;28;20051;-72
2022/04/27 02:26:54;;;;;;;18.05;11.05;;;;;;;4.40;100.00;102354.75;10305718;28;20051;-72
2022/04/27 02:31:54;;;;;;;22.25;12.15;;;;;;;4.49;100.00;102380.97;10304353;28;20796;-72
2022/04/27 02:36:55;;;;;;;19.55;11.15;;;;;;;4.51;100.00;102368.00;10304584;28;20042;-72
2022/04/27 02:41:56;;;;;;;25.00;12.25;;;;;;;4.55;100.00;102374.81;10308928;28;20031;-72
2022/04/27 02:46:56;;;;;;;21.00;12.15;;;;;;;4.58;100.00;102385.34;10314579;28;20046;-72
2022/04/27 02:51:57;;;;;;;22.70;12.57;;;;;;;4.63;100.00;102377.50;10313865;28;20498;-72
2022/04/27 02:56:57;;;;;;;19.52;11.30;;;;;;;4.61;100.00;102374.09;10317605;28;20031;-72
2022/04/27 03:01:58;;;;;;;19.77;11.85;;;;;;;4.59;100.00;102384.34;10351070;28;20077;-72
2022/04/27 03:06:58;;;;;;;20.13;12.40;;;;;;;4.43;100.00;102376.22;10354113;28;20376;-72
2022/04/27 03:11:59;;;;;;;24.15;12.52;;;;;;;4.47;100.00;102383.03;10354168;28;20042;-72
2022/04/27 03:16:59;;;;;;;21.48;12.60;;;;;;;4.41;100.00;102365.47;10336174;28;20033;-73
2022/04/27 03:22:00;;;;;;;28.60;13.75;;;;;;;4.56;100.00;102381.94;10351589;28;20046;-72
2022/04/27 03:27:00;;;;;;;26.75;12.88;;;;;;;4.23;100.00;102324.81;10312254;28;20054;-72
2022/04/27 03:32:01;;;;;;;23.95;12.95;;;;;;;4.65;100.00;102371.84;10310257;28;20042;-72
2022/04/27 03:37:02;;;;;;;21.45;12.77;;;;;;;4.66;100.00;102381.75;10312598;28;20035;-72
2022/04/27 03:42:03;;;;;;;24.55;13.38;;;;;;;4.68;100.00;102387.03;10312623;28;20130;-72
2022/04/27 03:47:04;;;;;;;25.38;13.70;;;;;;;4.70;100.00;102394.00;10312233;28;20574;-72
2022/04/27 03:52:04;;;;;;;24.48;13.65;;;;;;;4.51;100.00;102362.56;10311559;28;20034;-72
2022/04/27 03:57:05;;;;;;;25.38;13.43;;;;;;;4.55;100.00;102391.16;10308714;28;20050;-72
2022/04/27 04:02:06;;;;;;;20.55;12.63;;;;;;;4.62;100.00;102403.06;10310141;28;20046;-72
2022/04/27 04:07:07;;;;;;;20.58;14.90;;;;;;;4.59;100.00;102387.06;10311604;28;20038;-72
2022/04/27 04:12:08;;;;;;;23.00;14.65;;;;;;;4.60;100.00;102387.91;10310274;28;20486;-72
2022/04/27 04:17:08;;;;;;;25.98;14.18;;;;;;;4.68;100.00;102403.41;10293525;28;20023;-71
2022/04/27 04:22:09;;;;;;;26.35;13.57;;;;;;;4.75;100.00;102412.56;10307271;28;20053;-72
2022/04/27 04:32:28;;;;;;;24.92;13.77;;;;;;;4.85;100.00;102400.38;10310590;28;20070;-72
2022/04/27 04:37:28;;;;;;;24.20;12.80;;;;;;;5.06;100.00;102426.19;10310869;28;20039;-72
2022/04/27 04:42:29;;;;;;;26.30;13.85;;;;;;;5.12;100.00;102438.28;10310018;28;20042;-72
2022/04/27 04:47:30;;;;;;;21.75;13.27;;;;;;;5.15;100.00;102430.59;10318437;28;20038;-72
2022/04/27 04:52:30;;;;;;;24.95;12.98;;;;;;;5.27;100.00;102439.19;10342387;28;20093;-72
2022/04/27 04:57:31;;;;;;;20.88;12.57;;;;;;;5.31;100.00;102448.72;10309345;28;20081;-73
2022/04/27 05:02:31;;;;;;;20.65;12.30;;;;;;;5.41;100.00;102451.25;10308600;28;20031;-72
2022/04/27 05:07:32;;;;;;;24.77;11.65;;;;;;;5.47;100.00;102464.16;10308067;28;20405;-72
2022/04/27 05:12:34;;;;;;;19.73;11.52;;;;;;;5.51;100.00;102456.47;10323354;28;20530;-72
2022/04/27 05:17:36;;;;;;;23.50;12.73;;;;;;;5.54;100.00;102450.63;10308610;28;20039;-73
2022/04/27 05:22:38;;;;;;;21.42;12.60;;;;;;;5.74;100.00;102476.44;10340790;28;20047;-72
2022/04/27 05:27:38;;;;;;;30.50;13.48;;;;;;;5.71;100.00;102456.84;10348197;28;20054;-72
2022/04/27 05:32:42;;;;;;;25.13;13.68;;;;;;;5.92;100.00;102469.81;10348481;28;20037;-72
2022/04/27 05:37:43;;;;;;;18.95;11.63;;;;;;;6.01;100.00;102466.81;10331543;28;20098;-72
2022/04/27 05:42:45;;;;;;;19.42;11.40;;;;;;;6.30;100.00;102499.91;10346402;28;20057;-72
2022/04/27 05:47:45;;;;;;;17.80;11.13;;;;;;;6.40;100.00;102489.53;10347458;28;20061;-72
2022/04/27 05:52:53;;;;;;;22.15;11.88;;;;;;;6.52;100.00;102488.03;10325146;28;20057;-72
2022/04/27 05:57:53;;;;;;;20.65;11.80;;;;;;;6.77;100.00;102501.44;10344435;28;20092;-72
2022/04/27 06:02:53;;;;;;;16.45;10.75;;;;;;;6.75;100.00;102492.56;10347734;28;20482;-72
2022/04/27 06:07:54;;;;;;;16.33;10.77;;;;;;;6.98;100.00;102509.72;10347728;28;20061;-72
2022/04/27 06:12:54;;;;;;;23.23;11.18;;;;;;;7.14;100.00;102514.16;10329032;28;20035;-72
2022/04/27 06:17:55;;;;;;;19.08;11.30;;;;;;;7.31;100.00;102523.00;10346488;28;20030;-72
2022/04/27 06:22:56;;;;;;;16.70;10.60;;;;;;;7.36;100.00;102517.81;10320580;28;20047;-72
2022/04/27 06:27:57;;;;;;;22.65;11.48;;;;;;;6.91;100.00;102445.00;10304841;28;20046;-72
2022/04/27 06:32:57;;;;;;;22.65;11.30;;;;;;;7.56;100.00;102545.44;10306550;28;20034;-72
2022/04/27 06:37:58;;;;;;;21.73;9.68;;;;;;;7.63;100.00;102543.63;10304981;28;20034;-72
2022/04/27 06:42:58;;;;;;;17.35;10.60;;;;;;;7.55;100.00;102542.91;10305735;28;20065;-72
2022/04/27 06:47:59;;;;;;;18.95;9.40;;;;;;;7.72;100.00;102557.22;10320713;28;20037;-72
2022/04/27 06:52:59;;;;;;;21.88;10.05;;;;;;;7.80;100.00;102563.41;10306525;28;20041;-72
2022/04/27 06:58:00;;;;;;;14.32;8.25;;;;;;;7.97;100.00;102565.91;10314921;28;20035;-72
2022/04/27 07:03:00;;;;;;;13.18;9.00;;;;;;;8.09;100.00;102567.94;10306187;28;20046;-72
2022/04/27 07:08:01;;;;;;;12.45;8.48;;;;;;;8.31;100.00;102569.81;10304247;28;20324;-72
2022/04/27 07:13:02;;;;;;;11.68;6.85;;;;;;;8.57;100.00;102570.06;10303869;28;20043;-72
2022/04/27 07:18:03;;;;;;;14.68;6.93;;;;;;;8.82;100.00;102575.94;10320363;28;20430;-72
2022/04/27 07:23:03;;;;;;;24.17;6.03;;;;;;;9.04;100.00;102570.38;10336204;28;20045;-72
2022/04/27 07:28:04;;;;;;;10.35;5.20;;;;;;;9.22;100.00;102567.94;10343962;28;20102;-72
2022/04/27 07:33:04;;;;;;;9.45;5.07;;;;;;;9.41;100.00;102560.00;10351460;28;20029;-72
2022/04/27 07:38:05;;;;;;;10.45;4.10;;;;;;;9.70;100.00;102578.91;10334504;28;20027;-71
2022/04/27 07:43:05;;;;;;;9.77;4.43;;;;;;;10.09;100.00;102574.56;10350027;28;20038;-72
2022/04/27 07:48:06;;;;;;;5.88;2.80;;;;;;;10.26;97.12;102569.50;10348941;28;20374;-72
2022/04/27 07:53:07;;;;;;;5.55;3.30;;;;;;;10.45;95.60;102567.00;10350112;28;20038;-72
2022/04/27 07:58:07;;;;;;;4.07;2.50;;;;;;;10.54;89.51;102543.66;10351161;28;20027;-73
2022/04/27 08:03:08;;;;;;;8.98;1.60;;;;;;;10.42;82.84;102573.78;10349675;28;20093;-72
2022/04/27 08:08:08;;;;;;;3.75;1.20;;;;;;;10.12;79.74;102515.50;10350721;28;20035;-72
2022/04/27 08:13:09;;;;;;;11.18;2.38;;;;;;;10.21;79.31;102574.81;10350007;28;20022;-72
2022/04/27 08:18:10;;;;;;;8.05;1.70;;;;;;;10.22;79.42;102579.22;10348292;28;20066;-69
2022/04/27 08:23:11;;;;;;;6.53;1.85;;;;;;;10.27;79.12;102582.22;10355398;28;20050;-71
2022/04/27 08:28:11;;;;;;;3.80;1.50;;;;;;;10.32;80.81;102594.53;10374419;28;20045;-71
2022/04/27 08:33:12;;;;;;;4.90;2.42;;;;;;;10.49;78.93;102584.78;10373075;28;20049;-71
2022/04/27 08:38:12;;;;;;;4.15;1.48;;;;;;;10.62;77.87;102592.19;10390328;28;20026;-72
2022/04/27 08:43:13;;;;;;;5.65;1.63;;;;;;;10.48;77.17;102592.22;10387701;28;20025;-72
2022/04/27 08:48:16;;;;;;;7.57;2.15;;;;;;;10.59;79.63;102604.50;10371836;28;20098;-71
2022/04/27 08:53:16;;;;;;;5.55;1.40;;;;;;;10.78;76.22;102599.19;10376362;28;20058;-72
2022/04/27 08:58:17;;;;;;;6.60;1.40;;;;;;;10.78;75.53;102593.66;10343091;28;20053;-71
2022/04/27 09:03:34;;;;;;;6.13;1.50;;;;;;;10.97;76.26;102597.44;10348941;28;20094;-71
2022/04/27 09:08:52;;;;;;;5.13;1.30;;;;;;;11.21;75.96;102610.53;10347063;28;20037;-72
2022/04/27 09:13:55;;;;;;;5.10;1.20;;;;;;;10.99;72.17;102587.06;10348126;28;20033;-72
2022/04/27 09:24:16;;;;;;;4.10;1.30;;;;;;;11.24;72.78;102604.59;10346830;28;20065;-72
2022/04/27 09:29:24;;;;;;;8.65;1.83;;;;;;;11.46;72.06;102602.41;10346527;28;20074;-72
2022/04/27 09:34:27;;;;;;;6.82;1.92;;;;;;;11.78;73.25;102596.97;10346163;28;20038;-73
2022/04/27 09:39:28;;;;;;;8.95;1.75;;;;;;;12.15;71.76;102605.47;10328728;28;20061;-72
2022/04/27 09:44:30;;;;;;;3.60;1.58;;;;;;;12.40;73.61;102601.88;10344737;28;20061;-72
2022/04/27 09:49:37;;;;;;;4.13;1.77;;;;;;;12.70;69.35;102604.84;10328642;28;20033;-72
2022/04/27 09:54:38;;;;;;;3.88;1.83;;;;;;;12.87;68.14;102605.94;10326787;28;20027;-73
2022/04/27 09:59:38;;;;;;;4.95;1.70;;;;;;;12.93;68.07;102601.44;10340163;28;20030;-73
2022/04/27 10:04:40;;;;;;;6.20;1.50;;;;;;;12.98;68.03;102604.38;10346215;28;20034;-72
2022/04/27 10:09:41;;;;;;;9.90;1.92;;;;;;;12.88;66.84;102593.81;10346268;28;20060;-72
2022/04/27 10:14:42;;;;;;;6.30;1.67;;;;;;;12.79;67.67;102599.84;10345524;28;20092;-72
2022/04/27 10:19:46;;;;;;;6.88;1.80;;;;;;;12.95;67.03;102595.69;10345453;28;20031;-72
2022/04/27 10:24:48;;;;;;;5.78;1.73;;;;;;;12.99;66.25;102606.03;10345427;28;20050;-72
2022/04/27 10:29:59;;;;;;;8.07;2.53;;;;;;;13.19;65.25;102588.38;10346717;28;20047;-72
2022/04/27 10:35:12;;;;;;;4.45;1.90;;;;;;;12.95;63.65;102593.75;10344715;28;20026;-72
2022/04/27 10:40:37;;;;;;;4.10;1.70;;;;;;;13.08;64.01;102599.16;10346275;28;20038;-72
2022/04/27 10:45:40;;;;;;;6.70;1.90;;;;;;;13.25;63.53;102590.22;10346552;28;20041;-72
2022/04/27 10:50:40;;;;;;;3.20;1.98;;;;;;;13.35;63.24;102598.84;10329349;28;20041;-71
2022/04/27 10:55:50;;;;;;;3.92;1.85;;;;;;;13.16;63.18;102599.91;10343793;28;20038;-71
2022/04/27 11:00:57;;;;;;;3.38;1.88;;;;;;;13.09;62.22;102600.84;10345542;28;20041;-72
2022/04/27 11:05:58;;;;;;;8.15;2.20;;;;;;;12.98;62.61;102600.72;10352888;28;20038;-72
2022/04/27 11:11:03;;;;;;;8.43;2.42;;;;;;;12.68;63.40;102599.53;10353127;28;20106;-72
2022/04/27 11:16:10;;;;;;;4.32;1.60;;;;;;;13.28;66.38;102614.66;10352572;28;20042;-72
2022/04/27 11:21:10;;;;;;;5.18;1.80;;;;;;;13.87;64.15;102612.25;10351906;28;20129;-72
2022/04/27 11:26:11;;;;;;;5.15;1.70;;;;;;;14.23;63.17;102594.69;10318839;28;20053;-72
2022/04/27 11:31:13;;;;;;;5.97;2.28;;;;;;;14.47;60.40;102581.75;10351746;28;19921;-72
2022/04/27 11:36:23;;;;;;;4.50;2.05;;;;;;;14.38;62.00;102602.53;10351328;28;20042;-72
2022/04/27 11:41:24;;;;;;;5.88;2.10;;;;;;;14.51;59.53;102598.72;10352409;28;20066;-72
2022/04/27 11:46:35;;;;;;;6.65;2.20;;;;;;;14.37;59.80;102594.50;10333785;28;20030;-72
2022/04/27 11:51:36;;;;;;;4.50;2.10;;;;;;;14.22;63.03;102612.41;10311263;28;20111;-71
2022/04/27 11:56:38;;;;;;;9.63;2.72;;;;;;;14.60;61.15;102604.81;10311726;28;20474;-72
2022/04/27 12:01:39;;;;;;;3.63;1.70;;;;;;;14.34;62.16;102612.41;10310226;28;20022;-72
2022/04/27 12:06:39;;;;;;;7.88;2.20;;;;;;;13.87;62.14;102620.56;10309999;28;20038;-72
2022/04/27 12:11:40;;;;;;;8.77;2.33;;;;;;;13.24;64.94;102618.97;10310260;28;20357;-72
2022/04/27 12:16:42;;;;;;;7.88;2.03;;;;;;;12.54;69.33;102647.69;10308949;28;20030;-71
2022/04/27 12:21:43;;;;;;;12.75;2.97;;;;;;;12.64;70.28;102648.03;10308610;28;20495;-71
2022/04/27 12:26:44;;;;;;;10.02;2.63;;;;;;;12.63;71.64;102648.25;10314493;28;20046;-71
2022/04/27 12:31:44;;;;;;;7.93;3.25;;;;;;;12.83;71.96;102645.31;10313995;28;20034;-71
2022/04/27 12:42:12;;;;;;;5.93;2.30;;;;;;;12.99;68.94;102622.63;10308679;28;20046;-71
2022/04/27 12:47:13;;;;;;;10.23;2.30;;;;;;;12.74;71.68;102641.16;10309408;28;20341;-72
2022/04/27 12:52:30;;;;;;;4.90;2.15;;;;;;;13.13;71.29;102651.00;10307359;28;20058;-71
2022/04/27 12:57:49;;;;;;;10.95;2.75;;;;;;;12.76;73.11;102661.13;10309323;28;20091;-71
2022/04/27 13:02:49;;;;;;;10.50;3.35;;;;;;;13.07;73.71;102657.44;10309491;28;20094;-71
2022/04/27 13:07:50;;;;;;;10.85;2.78;;;;;;;12.70;71.45;102638.00;10308889;28;20051;-72
2022/04/27 13:12:51;;;;;;;9.57;3.03;;;;;;;12.65;73.16;102641.44;10337841;28;20030;-72
2022/04/27 13:17:51;;;;;;;8.85;2.53;;;;;;;13.10;74.78;102657.84;10328427;28;20089;-71
2022/04/27 13:22:52;;;;;;;7.45;2.20;;;;;;;13.17;72.65;102634.78;10346784;28;20072;-72
2022/04/27 13:27:52;;;;;;;17.75;3.72;;;;;;;12.98;73.24;102645.84;10346528;28;20031;-71
2022/04/27 13:32:52;;;;;;;11.35;2.28;;;;;;;13.21;72.94;102647.94;10346053;28;20053;-71
2022/04/27 13:37:53;;;;;;;10.40;2.40;;;;;;;13.27;71.51;102626.78;10347206;28;20034;-72
2022/04/27 13:42:53;;;;;;;9.52;2.60;;;;;;;13.38;71.84;102647.38;10344564;28;20081;-71
2022/04/27 13:47:54;;;;;;;5.13;2.67;;;;;;;13.52;71.24;102633.16;10346127;28;20038;-72
2022/04/27 13:52:56;;;;;;;7.22;2.13;;;;;;;13.51;71.79;102645.28;10344912;28;20026;-71
2022/04/27 13:57:56;;;;;;;8.65;2.42;;;;;;;12.56;69.94;102518.44;10345198;28;20034;-71
2022/04/27 14:02:57;;;;;;;10.85;2.30;;;;;;;12.72;69.83;102594.41;10346774;28;20057;-71
2022/04/27 14:07:57;;;;;;;9.88;2.28;;;;;;;12.80;71.74;102629.22;10345910;28;20050;-71
2022/04/27 14:13:17;;;;;;;13.40;2.65;;;;;;;12.81;73.67;102631.72;10345657;28;20033;-71
2022/04/27 14:18:18;;;;;;;10.90;3.28;;;;;;;12.46;72.56;102639.66;10344897;28;20502;-71
2022/04/27 14:23:18;;;;;;;16.40;2.67;;;;;;;12.13;73.46;102640.72;10345455;28;20049;-71
2022/04/27 14:28:20;;;;;;;8.48;2.45;;;;;;;11.82;75.79;102584.38;10346100;28;20447;-71
2022/04/27 14:33:20;;;;;;;12.80;3.67;;;;;;;12.00;76.50;102627.84;10328722;28;20014;-71
2022/04/27 14:38:22;;;;;;;10.55;2.70;;;;;;;12.08;76.89;102651.59;10346936;28;20034;-71
2022/04/27 14:43:22;;;;;;;9.02;2.33;;;;;;;11.91;75.88;102643.84;10353228;28;20479;-71
2022/04/27 14:48:23;;;;;;;8.48;2.42;;;;;;;11.88;77.36;102647.00;10353065;28;20034;-71
2022/04/27 14:53:23;;;;;;;10.05;2.17;;;;;;;12.17;76.74;102655.78;10353420;28;20139;-69
2022/04/27 14:58:24;;;;;;;7.03;2.58;;;;;;;12.42;74.23;102635.66;10343645;28;20042;-69
2022/04/27 15:03:24;;;;;;;9.70;2.58;;;;;;;12.56;73.84;102634.50;10352844;28;20035;-71
2022/04/27 15:08:25;;;;;;;9.10;2.80;;;;;;;12.65;74.13;102633.16;10336158;28;20038;-71
2022/04/27 15:13:26;;;;;;;10.52;2.38;;;;;;;12.78;75.01;102634.13;10353613;28;20042;-72
2022/04/27 15:18:26;;;;;;;11.45;2.20;;;;;;;12.74;71.76;102624.59;10387793;28;20030;-71
2022/04/27 15:23:27;;;;;;;7.95;2.05;;;;;;;12.45;73.77;102610.38;10393930;28;20115;-71
2022/04/27 15:28:28;;;;;;;8.75;2.08;;;;;;;12.47;73.91;102642.22;10325390;28;20078;-71
2022/04/27 15:33:32;;;;;;;6.78;2.38;;;;;;;12.18;71.71;102623.53;10312905;28;20045;-71
2022/04/27 15:38:32;;;;;;;6.97;1.95;;;;;;;11.96;73.61;102628.53;10312392;28;20042;-72
2022/04/27 15:43:32;;;;;;;7.28;1.80;;;;;;;11.95;74.39;102632.34;10311941;28;20038;-72
2022/04/27 15:48:33;;;;;;;13.32;3.65;;;;;;;12.00;74.28;102646.34;10309497;28;20082;-72
2022/04/27 15:53:33;;;;;;;9.05;2.17;;;;;;;11.88;75.28;102637.88;10311981;28;20046;-71
2022/04/27 15:58:34;;;;;;;11.82;2.45;;;;;;;11.73;76.07;102643.69;10311205;28;20038;-71
2022/04/27 16:03:36;;;;;;;12.48;2.20;;;;;;;11.51;76.52;102666.06;10330470;28;20150;-70
2022/04/27 16:08:37;;;;;;;9.95;2.40;;;;;;;11.27;76.90;102666.75;10310395;28;20030;-71
2022/04/27 16:13:37;;;;;;;13.95;3.08;;;;;;;11.24;77.31;102670.75;10310742;28;20498;-71
2022/04/27 16:18:38;;;;;;;10.63;2.30;;;;;;;11.10;78.73;102678.22;10310424;28;20031;-72
2022/04/27 16:23:38;;;;;;;12.88;2.90;;;;;;;11.16;78.42;102661.88;10310520;28;20047;-71
2022/04/27 16:28:39;;;;;;;10.60;2.38;;;;;;;11.24;79.40;102672.66;10310024;28;20042;-71
2022/04/27 16:33:40;;;;;;;8.45;2.90;;;;;;;11.24;78.74;102675.44;10309002;28;20023;-71
2022/04/27 16:38:40;;;;;;;7.25;2.35;;;;;;;11.25;78.99;102688.16;10309657;28;20093;-72
2022/04/27 16:43:40;;;;;;;9.82;2.10;;;;;;;11.22;77.55;102669.28;10308101;28;20027;-72
2022/04/27 16:48:41;;;;;;;9.13;2.08;;;;;;;11.29;79.72;102675.66;10314143;28;20034;-71
2022/04/27 16:53:41;;;;;;;10.52;2.42;;;;;;;11.01;78.41;102660.19;10314387;28;20042;-71
2022/04/27 16:58:42;;;;;;;7.47;2.22;;;;;;;10.84;80.37;102684.59;10308636;28;20451;-71
2022/04/27 17:03:42;;;;;;;15.07;3.28;;;;;;;10.56;82.25;102695.78;10309136;28;20487;-72
2022/04/27 17:08:44;;;;;;;13.25;3.05;;;;;;;10.41;82.75;102689.63;10308313;28;20058;-71
2022/04/27 17:13:44;;;;;;;9.45;2.50;;;;;;;10.37;83.16;102699.34;10307023;28;20391;-71
2022/04/27 17:18:45;;;;;;;10.95;2.80;;;;;;;10.09;84.14;102678.31;10307422;28;20034;-71
2022/04/27 17:23:45;;;;;;;8.25;2.92;;;;;;;10.12;84.27;102694.38;10308367;28;20082;-72
2022/04/27 17:28:46;;;;;;;8.20;2.45;;;;;;;10.11;86.18;102698.22;10307716;28;20070;-71
2022/04/27 17:33:47;;;;;;;6.32;2.30;;;;;;;9.99;85.48;102675.94;10306571;28;20086;-72
2022/04/27 17:38:47;;;;;;;13.93;2.65;;;;;;;9.97;85.61;102701.97;10306129;28;20035;-72
2022/04/27 17:43:48;;;;;;;12.68;2.95;;;;;;;10.01;85.88;102714.25;10306771;28;20043;-72
2022/04/27 17:48:49;;;;;;;10.95;2.80;;;;;;;9.89;85.88;102717.56;10307253;28;20061;-71
2022/04/27 17:53:51;;;;;;;9.57;2.63;;;;;;;9.86;87.51;102729.00;10305844;28;20059;-71
2022/04/27 17:58:51;;;;;;;11.55;2.47;;;;;;;9.81;88.99;102726.00;10309015;28;20029;-71
2022/04/27 18:03:53;;;;;;;6.50;1.90;;;;;;;9.74;89.52;102741.63;10315267;28;20035;-72
2022/04/27 18:08:54;;;;;;;7.90;2.53;;;;;;;9.74;90.57;102738.88;10305791;28;20057;-72
2022/04/27 18:13:55;;;;;;;9.60;2.40;;;;;;;9.53;89.88;102730.69;10305199;28;20057;-72
2022/04/27 18:18:55;;;;;;;7.30;2.55;;;;;;;9.57;92.92;102741.13;10304973;28;20098;-71
2022/04/27 18:23:56;;;;;;;9.40;2.47;;;;;;;9.47;92.21;102746.97;10306336;28;20729;-72
2022/04/27 18:28:56;;;;;;;14.43;2.63;;;;;;;9.42;92.80;102754.97;10306487;28;20711;-71
2022/04/27 18:33:57;;;;;;;8.93;2.40;;;;;;;9.38;94.77;102770.16;10306237;28;20038;-72
2022/04/27 18:38:57;;;;;;;10.60;3.15;;;;;;;9.29;96.62;102771.38;10316037;28;20038;-71
2022/04/27 18:54:35;;;;;;;13.20;2.75;;;;;;;9.11;99.62;102782.81;10306721;28;20086;-73
2022/04/27 18:59:36;;;;;;;11.55;2.63;;;;;;;8.89;98.55;102765.53;10305819;28;20371;-71
2022/04/27 19:04:36;;;;;;;7.53;2.50;;;;;;;8.90;98.78;102775.47;10304937;28;20066;-71
2022/04/27 19:09:37;;;;;;;12.00;2.78;;;;;;;8.61;100.00;102741.56;10304026;28;20037;-72
2022/04/27 19:14:37;;;;;;;7.13;2.92;;;;;;;8.79;100.00;102800.72;10305518;28;20035;-71
2022/04/27 19:19:39;;;;;;;11.48;2.40;;;;;;;8.58;100.00;102796.03;10304565;28;20050;-71
2022/04/27 19:24:40;;;;;;;11.98;3.38;;;;;;;8.39;100.00;102786.47;10307557;28;20043;-71
2022/04/27 19:29:40;;;;;;;10.63;2.83;;;;;;;8.11;100.00;102783.63;10311308;28;20062;-72
2022/04/27 19:34:41;;;;;;;7.47;2.65;;;;;;;7.85;100.00;102785.81;10311836;28;20102;-71
2022/04/27 19:39:43;;;;;;;7.85;2.70;;;;;;;7.67;100.00;102796.31;10310804;28;20615;-72
2022/04/27 19:44:44;;;;;;;9.68;3.47;;;;;;;7.48;100.00;102801.28;10334153;28;20030;-71
2022/04/27 19:49:47;;;;;;;10.45;3.42;;;;;;;7.34;100.00;102803.97;10374766;28;20112;-72
2022/04/27 19:54:48;;;;;;;11.45;3.25;;;;;;;7.21;100.00;102810.97;10348713;28;20084;-72
2022/04/27 19:59:52;;;;;;;8.55;3.40;;;;;;;7.10;100.00;102813.28;10350688;28;20031;-72
2022/04/27 20:04:52;;;;;;;11.50;3.08;;;;;;;6.88;100.00;102810.34;10351192;28;20041;-71
2022/04/27 20:09:53;;;;;;;14.75;4.30;;;;;;;6.79;100.00;102819.66;10350396;28;20053;-71
2022/04/27 20:14:55;;;;;;;10.90;3.47;;;;;;;6.72;100.00;102813.19;10379104;28;20041;-71
2022/04/27 20:19:55;;;;;;;12.27;3.80;;;;;;;6.62;100.00;102821.66;10387544;28;20037;-72
2022/04/27 20:24:56;;;;;;;8.57;4.00;;;;;;;6.45;100.00;102843.63;10387284;28;20061;-71
2022/04/27 20:29:56;;;;;;;9.10;4.40;;;;;;;6.22;100.00;102831.75;10390473;28;20038;-72
2022/04/27 20:34:57;;;;;;;7.97;3.58;;;;;;;6.03;100.00;102827.56;10388351;28;20022;-72
2022/04/27 20:39:57;;;;;;;13.15;3.53;;;;;;;6.03;100.00;102841.25;10389866;28;20034;-72
2022/04/27 20:44:58;;;;;;;12.88;4.80;;;;;;;6.00;100.00;102847.06;10388615;28;20333;-71
2022/04/27 20:49:58;;;;;;;10.18;3.72;;;;;;;5.96;100.00;102848.44;10386365;28;20026;-71
2022/04/27 20:54:59;;;;;;;12.60;4.35;;;;;;;5.95;100.00;102854.94;10374430;28;20038;-71
2022/04/27 21:00:00;;;;;;;10.98;4.80;;;;;;;5.75;100.00;102838.91;10349397;28;20034;-71
2022/04/27 21:05:00;;;;;;;7.82;3.50;;;;;;;5.63;100.00;102840.28;10345817;28;20034;-71
2022/04/27 21:10:01;;;;;;;13.73;5.07;;;;;;;5.41;100.00;102839.94;10346829;28;20057;-71
2022/04/27 21:15:02;;;;;;;10.57;4.38;;;;;;;5.35;100.00;102846.09;10345945;28;20041;-71
2022/04/27 21:20:03;;;;;;;13.45;5.65;;;;;;;5.13;100.00;102841.34;10348615;28;20035;-71
2022/04/27 21:25:04;;;;;;;8.85;4.85;;;;;;;5.07;100.00;102858.41;10346017;28;20053;-71
2022/04/27 21:30:07;;;;;;;13.77;5.47;;;;;;;4.90;100.00;102861.13;10346981;28;20113;-71
2022/04/27 21:35:08;;;;;;;18.52;6.38;;;;;;;4.75;100.00;102862.78;10346823;28;20455;-72
2022/04/27 21:40:08;;;;;;;10.57;6.35;;;;;;;4.65;100.00;102855.59;10346932;28;20036;-72
2022/04/27 21:45:09;;;;;;;14.13;6.93;;;;;;;4.49;100.00;102860.16;10346957;28;20455;-71
2022/04/27 21:50:11;;;;;;;14.48;5.75;;;;;;;4.44;100.00;102883.31;10345062;28;20030;-71
2022/04/27 21:55:12;;;;;;;19.85;7.18;;;;;;;4.23;100.00;102867.34;10346192;28;20022;-72
2022/04/27 22:00:16;;;;;;;14.80;7.90;;;;;;;4.17;100.00;102873.47;10345974;28;20030;-72
2022/04/27 22:05:17;;;;;;;14.38;7.15;;;;;;;4.07;100.00;102875.44;10344389;28;20034;-71
2022/04/27 22:10:17;;;;;;;17.58;6.93;;;;;;;4.10;100.00;102894.22;10346102;28;20402;-72
2022/04/27 22:15:18;;;;;;;12.98;6.78;;;;;;;4.01;100.00;102903.34;10346101;28;20022;-71
2022/04/27 22:20:18;;;;;;;18.60;6.72;;;;;;;3.95;100.00;102904.00;10346298;28;20034;-71
2022/04/27 22:25:20;;;;;;;12.38;6.68;;;;;;;3.90;100.00;102909.09;10345146;28;20042;-72
2022/04/27 22:30:20;;;;;;;14.18;7.60;;;;;;;3.73;100.00;102911.69;10343974;28;20042;-71
2022/04/27 22:35:21;;;;;;;18.90;9.65;;;;;;;3.61;100.00;102904.78;10344003;28;20092;-71
2022/04/27 22:40:21;;;;;;;28.88;12.35;;;;;;;3.60;100.00;102925.72;10343938;28;20126;-71
2022/04/27 22:45:22;;;;;;;27.92;13.02;;;;;;;3.44;100.00;102914.69;10345747;28;20022;-71
2022/04/27 22:50:22;;;;;;;42.70;16.65;;;;;;;3.38;100.00;102927.06;10344363;28;20030;-71
2022/04/27 22:55:23;;;;;;;51.15;25.27;;;;;;;3.34;100.00;102925.66;10331114;28;20058;-71
2022/04/27 23:00:24;;;;;;;76.72;27.98;;;;;;;3.23;100.00;102925.91;10349341;28;20031;-71
2022/04/27 23:05:24;;;;;;;59.40;24.85;;;;;;;3.15;100.00;102926.69;10353545;28;20058;-71
2022/04/27 23:15:44;;;;;;;33.92;14.10;;;;;;;2.65;100.00;102866.44;10352841;28;20038;-71
2022/04/27 23:20:44;;;;;;;28.65;10.65;;;;;;;2.88;100.00;102922.16;10353649;28;20034;-71
2022/04/27 23:25:45;;;;;;;22.98;10.60;;;;;;;2.79;100.00;102923.03;10351222;28;20098;-71